createdAt,value
2018-11-27T00:00:34.502Z,29.27
2018-11-27T00:01:23.023Z,28.73
2018-11-27T00:02:11.550Z,28.07
2018-11-27T00:03:00.540Z,28.12
2018-11-27T00:03:54.728Z,29.00
2018-11-27T00:04:47.136Z,28.32
2018-11-27T00:05:36.039Z,27.98
2018-11-27T00:06:24.617Z,28.60
2018-11-27T00:07:12.684Z,27.50
2018-11-27T00:08:00.915Z,28.77
2018-11-27T00:08:49.179Z,29.15
2018-11-27T00:09:37.307Z,29.30
2018-11-27T00:10:25.065Z,29.05
2018-11-27T00:11:13.214Z,27.60
2018-11-27T00:12:01.301Z,29.02
2018-11-27T00:12:49.318Z,27.95
2018-11-27T00:13:37.342Z,27.07
2018-11-27T00:14:25.399Z,26.93
2018-11-27T00:15:14.035Z,29.77
2018-11-27T00:16:02.296Z,28.45
2018-11-27T00:16:50.197Z,29.02
2018-11-27T00:17:38.520Z,28.57
2018-11-27T00:18:26.650Z,28.70
2018-11-27T00:19:14.575Z,28.67
2018-11-27T00:20:02.185Z,28.15
2018-11-27T00:20:49.816Z,28.57
2018-11-27T00:21:38.076Z,29.25
2018-11-27T00:22:26.106Z,29.15
2018-11-27T00:23:14.326Z,27.95
2018-11-27T00:24:02.404Z,28.75
2018-11-27T00:24:49.953Z,29.35
2018-11-27T00:25:38.025Z,28.73
2018-11-27T00:26:26.397Z,28.65
2018-11-27T00:27:14.825Z,26.85
2018-11-27T00:28:02.781Z,29.63
2018-11-27T00:28:50.510Z,29.35
2018-11-27T00:29:38.164Z,28.07
2018-11-27T00:30:26.420Z,27.73
2018-11-27T00:31:14.366Z,27.62
2018-11-27T00:32:02.432Z,28.98
2018-11-27T00:32:50.536Z,28.75
2018-11-27T00:33:38.488Z,28.67
2018-11-27T00:34:27.757Z,28.45
2018-11-27T00:35:17.140Z,28.42
2018-11-27T00:36:05.972Z,27.32
2018-11-27T00:36:53.900Z,27.60
2018-11-27T00:37:41.580Z,28.02
2018-11-27T00:38:29.810Z,29.00
2018-11-27T00:39:18.104Z,28.32
2018-11-27T00:40:10.620Z,28.40
2018-11-27T00:40:58.730Z,27.35
2018-11-27T00:41:46.982Z,27.25
2018-11-27T00:42:35.308Z,28.05
2018-11-27T00:43:23.611Z,28.42
2018-11-27T00:44:11.753Z,28.62
2018-11-27T00:44:59.892Z,29.63
2018-11-27T00:45:47.981Z,27.22
2018-11-27T00:46:36.711Z,27.62
2018-11-27T00:47:24.800Z,28.12
2018-11-27T00:48:12.930Z,26.75
2018-11-27T00:49:01.163Z,27.82
2018-11-27T00:49:49.163Z,29.12
2018-11-27T00:50:36.778Z,27.50
2018-11-27T00:51:24.996Z,27.07
2018-11-27T00:52:13.537Z,29.57
2018-11-27T00:53:01.872Z,28.75
2018-11-27T00:53:50.236Z,27.42
2018-11-27T00:54:40.163Z,28.92
2018-11-27T00:55:28.805Z,28.87
2018-11-27T00:56:16.350Z,28.40
2018-11-27T00:57:04.450Z,30.52
2018-11-27T00:57:53.134Z,29.98
2018-11-27T00:58:41.133Z,28.67
2018-11-27T00:59:29.390Z,29.80
2018-11-27T01:00:20.483Z,29.35
2018-11-27T01:01:08.516Z,29.02
2018-11-27T01:01:57.564Z,29.05
2018-11-27T01:02:45.811Z,29.27
2018-11-27T01:03:33.860Z,29.10
2018-11-27T01:04:21.490Z,27.60
2018-11-27T01:05:14.091Z,27.95
2018-11-27T01:06:02.256Z,29.07
2018-11-27T01:06:50.297Z,29.12
2018-11-27T01:07:38.218Z,28.20
2018-11-27T01:08:25.890Z,27.35
2018-11-27T01:09:14.102Z,28.35
2018-11-27T01:10:02.941Z,27.55
2018-11-27T01:10:52.048Z,28.85
2018-11-27T01:11:41.099Z,27.90
2018-11-27T01:12:29.991Z,29.27
2018-11-27T01:13:19.204Z,28.23
2018-11-27T01:14:08.791Z,28.25
2018-11-27T01:14:59.581Z,28.83
2018-11-27T01:15:48.351Z,28.77
2018-11-27T01:16:36.284Z,28.92
2018-11-27T01:17:24.398Z,28.47
2018-11-27T01:18:12.235Z,28.20
2018-11-27T01:18:59.924Z,27.95
2018-11-27T01:19:48.167Z,28.23
2018-11-27T01:20:36.628Z,28.57
2018-11-27T01:21:25.670Z,29.45
2018-11-27T01:22:13.496Z,28.57
2018-11-27T01:23:02.143Z,28.75
2018-11-27T01:23:49.843Z,27.90
2018-11-27T01:24:38.069Z,29.07
2018-11-27T01:25:25.963Z,29.27
2018-11-27T01:26:13.609Z,29.50
2018-11-27T01:27:01.855Z,28.17
2018-11-27T01:27:49.607Z,28.92
2018-11-27T01:28:37.789Z,29.27
2018-11-27T01:29:26.726Z,29.07
2018-11-27T01:30:15.979Z,28.95
2018-11-27T01:31:03.647Z,29.67
2018-11-27T01:31:52.198Z,29.98
2018-11-27T01:32:40.195Z,29.82
2018-11-27T01:33:28.827Z,29.27
2018-11-27T01:34:17.239Z,29.67
2018-11-27T01:35:05.572Z,29.75
2018-11-27T01:35:54.220Z,27.30
2018-11-27T01:36:42.163Z,29.95
2018-11-27T01:37:30.254Z,28.62
2018-11-27T01:38:18.433Z,28.25
2018-11-27T01:39:08.850Z,28.75
2018-11-27T01:40:03.465Z,29.57
2018-11-27T01:40:52.168Z,28.95
2018-11-27T01:41:40.255Z,29.42
2018-11-27T01:42:29.537Z,28.60
2018-11-27T01:43:19.324Z,29.37
2018-11-27T01:44:07.250Z,28.80
2018-11-27T01:44:56.146Z,28.47
2018-11-27T01:45:43.955Z,29.45
2018-11-27T01:46:33.532Z,29.27
2018-11-27T01:47:22.846Z,28.67
2018-11-27T01:48:11.000Z,29.18
2018-11-27T01:48:59.318Z,29.02
2018-11-27T01:49:47.458Z,29.00
2018-11-27T01:50:35.359Z,30.45
2018-11-27T01:51:23.788Z,30.08
2018-11-27T01:52:11.957Z,28.27
2018-11-27T01:53:00.129Z,29.90
2018-11-27T01:53:48.211Z,29.95
2018-11-27T01:54:36.309Z,29.30
2018-11-27T01:55:24.491Z,28.47
2018-11-27T01:56:12.947Z,28.75
2018-11-27T01:57:01.051Z,30.12
2018-11-27T01:57:49.646Z,30.60
2018-11-27T01:58:37.659Z,29.52
2018-11-27T01:59:26.041Z,29.55
2018-11-27T02:00:30.730Z,29.48
2018-11-27T02:01:18.315Z,28.95
2018-11-27T02:02:06.205Z,29.15
2018-11-27T02:02:54.548Z,29.37
2018-11-27T02:03:42.564Z,29.98
2018-11-27T02:04:30.644Z,29.57
2018-11-27T02:05:18.934Z,30.05
2018-11-27T02:06:06.973Z,28.70
2018-11-27T02:06:54.690Z,30.52
2018-11-27T02:07:44.808Z,29.10
2018-11-27T02:08:32.739Z,29.67
2018-11-27T02:09:20.288Z,28.50
2018-11-27T02:10:10.571Z,29.82
2018-11-27T02:10:58.651Z,29.63
2018-11-27T02:11:46.666Z,29.85
2018-11-27T02:12:34.945Z,29.77
2018-11-27T02:13:22.942Z,29.90
2018-11-27T02:14:10.512Z,29.12
2018-11-27T02:14:58.112Z,31.00
2018-11-27T02:15:45.547Z,30.92
2018-11-27T02:16:33.241Z,30.23
2018-11-27T02:17:21.396Z,28.60
2018-11-27T02:18:09.244Z,28.47
2018-11-27T02:18:57.234Z,31.00
2018-11-27T02:19:45.469Z,30.62
2018-11-27T02:20:32.986Z,30.12
2018-11-27T02:21:21.060Z,31.33
2018-11-27T02:22:08.879Z,29.18
2018-11-27T02:22:57.052Z,30.68
2018-11-27T02:23:45.325Z,29.52
2018-11-27T02:24:33.585Z,28.42
2018-11-27T02:25:25.331Z,28.70
2018-11-27T02:26:13.738Z,28.85
2018-11-27T02:27:01.666Z,30.80
2018-11-27T02:27:49.455Z,29.72
2018-11-27T02:28:37.496Z,29.25
2018-11-27T02:29:25.167Z,30.85
2018-11-27T02:30:20.420Z,30.17
2018-11-27T02:31:08.506Z,30.65
2018-11-27T02:31:56.906Z,29.75
2018-11-27T02:32:45.456Z,29.10
2018-11-27T02:33:33.384Z,29.67
2018-11-27T02:34:21.071Z,29.20
2018-11-27T02:35:11.305Z,29.30
2018-11-27T02:35:58.983Z,31.87
2018-11-27T02:36:46.986Z,31.20
2018-11-27T02:37:34.546Z,29.42
2018-11-27T02:38:22.141Z,31.57
2018-11-27T02:39:09.699Z,30.88
2018-11-27T02:39:57.238Z,30.62
2018-11-27T02:40:45.439Z,31.12
2018-11-27T02:41:33.448Z,29.23
2018-11-27T02:42:22.062Z,29.52
2018-11-27T02:43:09.964Z,29.72
2018-11-27T02:43:59.452Z,31.80
2018-11-27T02:44:48.017Z,31.37
2018-11-27T02:45:40.173Z,30.48
2018-11-27T02:46:28.788Z,29.98
2018-11-27T02:47:16.691Z,31.80
2018-11-27T02:48:06.307Z,31.25
2018-11-27T02:48:58.294Z,29.67
2018-11-27T02:49:47.050Z,29.98
2018-11-27T02:50:38.101Z,30.77
2018-11-27T02:51:28.052Z,30.45
2018-11-27T02:52:16.969Z,30.60
2018-11-27T02:53:09.087Z,29.23
2018-11-27T02:54:01.071Z,30.82
2018-11-27T02:55:00.441Z,30.52
2018-11-27T02:55:49.757Z,28.98
2018-11-27T02:56:39.821Z,29.45
2018-11-27T02:57:28.398Z,31.52
2018-11-27T02:58:16.517Z,31.27
2018-11-27T02:59:04.225Z,31.25
2018-11-27T02:59:54.181Z,30.62
2018-11-27T03:00:42.281Z,30.75
2018-11-27T03:01:30.119Z,32.25
2018-11-27T03:02:18.192Z,30.68
2018-11-27T03:03:07.115Z,31.82
2018-11-27T03:03:56.859Z,30.65
2018-11-27T03:04:45.445Z,31.85
2018-11-27T03:05:35.177Z,29.85
2018-11-27T03:06:23.009Z,32.23
2018-11-27T03:07:10.716Z,29.87
2018-11-27T03:07:58.892Z,31.25
2018-11-27T03:08:47.169Z,30.72
2018-11-27T03:09:35.281Z,32.55
2018-11-27T03:10:23.844Z,31.95
2018-11-27T03:11:11.828Z,30.20
2018-11-27T03:11:59.944Z,29.42
2018-11-27T03:12:47.843Z,31.02
2018-11-27T03:13:35.912Z,31.00
2018-11-27T03:14:24.041Z,32.50
2018-11-27T03:15:22.240Z,31.35
2018-11-27T03:16:10.161Z,30.92
2018-11-27T03:16:58.067Z,29.82
2018-11-27T03:17:46.272Z,30.10
2018-11-27T03:18:34.668Z,30.65
2018-11-27T03:19:23.755Z,29.45
2018-11-27T03:20:12.696Z,30.55
2018-11-27T03:21:00.806Z,29.87
2018-11-27T03:21:49.001Z,30.45
2018-11-27T03:22:36.936Z,29.98
2018-11-27T03:23:24.420Z,30.92
2018-11-27T03:24:13.041Z,28.92
2018-11-27T03:25:00.783Z,29.87
2018-11-27T03:25:48.367Z,30.57
2018-11-27T03:26:36.402Z,29.80
2018-11-27T03:27:24.436Z,30.08
2018-11-27T03:28:12.727Z,30.25
2018-11-27T03:29:00.939Z,29.32
2018-11-27T03:29:48.539Z,30.62
2018-11-27T03:30:36.274Z,30.90
2018-11-27T03:31:24.383Z,29.82
2018-11-27T03:32:12.259Z,31.40
2018-11-27T03:32:59.830Z,29.18
2018-11-27T03:33:47.948Z,30.97
2018-11-27T03:34:37.078Z,30.17
2018-11-27T03:35:25.991Z,30.77
2018-11-27T03:36:13.745Z,31.10
2018-11-27T03:37:01.640Z,32.53
2018-11-27T03:37:50.005Z,32.15
2018-11-27T03:38:38.212Z,29.48
2018-11-27T03:39:26.276Z,32.65
2018-11-27T03:40:36.566Z,32.50
2018-11-27T03:41:24.429Z,32.78
2018-11-27T03:42:12.539Z,32.67
2018-11-27T03:43:00.629Z,34.33
2018-11-27T03:43:48.951Z,33.53
2018-11-27T03:44:39.703Z,34.30
2018-11-27T03:45:27.531Z,32.63
2018-11-27T03:46:15.094Z,32.58
2018-11-27T03:47:02.699Z,34.67
2018-11-27T03:47:50.591Z,33.30
2018-11-27T03:48:38.783Z,31.35
2018-11-27T03:49:26.282Z,33.48
2018-11-27T03:50:38.871Z,32.83
2018-11-27T03:51:26.837Z,30.72
2018-11-27T03:52:14.819Z,32.15
2018-11-27T03:53:02.463Z,32.95
2018-11-27T03:53:51.483Z,32.83
2018-11-27T03:54:39.564Z,32.50
2018-11-27T03:55:27.122Z,33.02
2018-11-27T03:56:15.126Z,31.37
2018-11-27T03:57:02.838Z,31.55
2018-11-27T03:57:50.756Z,29.92
2018-11-27T03:58:39.022Z,32.67
2018-11-27T03:59:27.340Z,33.25
2018-11-27T04:00:34.074Z,30.95
2018-11-27T04:01:28.365Z,30.77
2018-11-27T04:02:23.723Z,30.70
2018-11-27T04:03:13.510Z,31.23
2018-11-27T04:04:01.513Z,31.62
2018-11-27T04:04:49.512Z,30.82
2018-11-27T04:05:38.511Z,30.32
2018-11-27T04:06:26.511Z,30.70
2018-11-27T04:07:17.967Z,31.60
2018-11-27T04:08:07.262Z,31.77
2018-11-27T04:08:54.991Z,31.85
2018-11-27T04:09:43.191Z,30.43
2018-11-27T04:10:31.437Z,31.48
2018-11-27T04:11:19.353Z,29.42
2018-11-27T04:12:07.408Z,31.25
2018-11-27T04:12:55.207Z,30.88
2018-11-27T04:13:43.813Z,30.50
2018-11-27T04:14:31.941Z,30.75
2018-11-27T04:15:20.176Z,29.77
2018-11-27T04:16:08.054Z,31.55
2018-11-27T04:16:56.069Z,30.77
2018-11-27T04:17:43.763Z,31.15
2018-11-27T04:18:32.649Z,31.42
2018-11-27T04:19:23.049Z,32.30
2018-11-27T04:20:12.301Z,32.83
2018-11-27T04:21:00.052Z,31.82
2018-11-27T04:21:47.776Z,32.35
2018-11-27T04:22:35.893Z,31.55
2018-11-27T04:23:24.007Z,32.10
2018-11-27T04:24:11.960Z,30.60
2018-11-27T04:25:00.306Z,32.13
2018-11-27T04:25:48.458Z,31.85
2018-11-27T04:26:35.997Z,29.15
2018-11-27T04:27:23.931Z,31.07
2018-11-27T04:28:11.649Z,30.88
2018-11-27T04:28:59.767Z,31.25
2018-11-27T04:29:48.776Z,31.75
2018-11-27T04:30:37.080Z,30.88
2018-11-27T04:31:25.024Z,31.15
2018-11-27T04:32:13.069Z,33.30
2018-11-27T04:33:02.313Z,32.38
2018-11-27T04:33:50.224Z,31.17
2018-11-27T04:34:38.461Z,31.07
2018-11-27T04:35:26.503Z,30.92
2018-11-27T04:36:14.534Z,31.48
2018-11-27T04:37:02.499Z,30.02
2018-11-27T04:37:51.629Z,32.75
2018-11-27T04:38:40.721Z,30.95
2018-11-27T04:39:28.950Z,29.98
2018-11-27T04:40:20.859Z,31.27
2018-11-27T04:41:09.045Z,31.20
2018-11-27T04:41:56.680Z,30.27
2018-11-27T04:42:44.776Z,31.82
2018-11-27T04:43:32.586Z,30.60
2018-11-27T04:44:20.708Z,33.25
2018-11-27T04:45:18.777Z,31.80
2018-11-27T04:46:06.683Z,30.90
2018-11-27T04:46:54.608Z,31.80
2018-11-27T04:47:42.831Z,31.07
2018-11-27T04:48:30.676Z,31.48
2018-11-27T04:49:18.255Z,31.02
2018-11-27T04:50:08.350Z,31.52
2018-11-27T04:50:56.065Z,30.65
2018-11-27T04:51:44.116Z,32.15
2018-11-27T04:52:32.232Z,34.00
2018-11-27T04:53:19.889Z,33.75
2018-11-27T04:54:08.147Z,31.77
2018-11-27T04:54:56.504Z,30.85
2018-11-27T04:55:44.853Z,30.70
2018-11-27T04:56:32.965Z,32.60
2018-11-27T04:57:20.806Z,33.75
2018-11-27T04:58:08.864Z,30.05
2018-11-27T04:58:57.161Z,31.60
2018-11-27T04:59:45.407Z,31.65
2018-11-27T05:00:35.048Z,30.65
2018-11-27T05:01:22.948Z,31.52
2018-11-27T05:02:11.037Z,33.60
2018-11-27T05:02:59.653Z,31.68
2018-11-27T05:03:48.009Z,29.92
2018-11-27T05:04:36.232Z,32.93
2018-11-27T05:05:25.933Z,33.00
2018-11-27T05:06:14.369Z,32.63
2018-11-27T05:07:02.219Z,30.37
2018-11-27T05:07:50.320Z,32.35
2018-11-27T05:08:38.453Z,30.90
2018-11-27T05:09:26.560Z,32.85
2018-11-27T05:10:15.492Z,31.80
2018-11-27T05:11:02.972Z,31.60
2018-11-27T05:11:54.483Z,31.45
2018-11-27T05:12:44.531Z,32.90
2018-11-27T05:13:32.626Z,31.75
2018-11-27T05:14:20.306Z,31.85
2018-11-27T05:15:15.944Z,33.60
2018-11-27T05:16:03.859Z,32.35
2018-11-27T05:16:52.398Z,32.73
2018-11-27T05:17:41.593Z,32.13
2018-11-27T05:18:29.852Z,32.42
2018-11-27T05:19:17.773Z,32.30
2018-11-27T05:20:07.632Z,32.30
2018-11-27T05:20:56.240Z,33.13
2018-11-27T05:21:44.379Z,33.08
2018-11-27T05:22:32.098Z,31.60
2018-11-27T05:23:20.179Z,33.18
2018-11-27T05:24:08.213Z,33.20
2018-11-27T05:24:56.286Z,33.13
2018-11-27T05:25:44.776Z,32.13
2018-11-27T05:26:33.395Z,32.00
2018-11-27T05:27:20.930Z,31.57
2018-11-27T05:28:08.560Z,32.13
2018-11-27T05:28:56.679Z,31.17
2018-11-27T05:29:44.513Z,33.83
2018-11-27T05:30:32.408Z,31.42
2018-11-27T05:31:20.002Z,31.62
2018-11-27T05:32:08.200Z,31.45
2018-11-27T05:32:56.163Z,31.65
2018-11-27T05:33:43.976Z,31.87
2018-11-27T05:34:32.193Z,31.70
2018-11-27T05:35:21.361Z,31.97
2018-11-27T05:36:09.244Z,31.82
2018-11-27T05:36:57.146Z,31.93
2018-11-27T05:37:49.362Z,32.50
2018-11-27T05:38:37.164Z,33.40
2018-11-27T05:39:25.829Z,31.48
2018-11-27T05:40:15.640Z,31.60
2018-11-27T05:41:03.683Z,31.80
2018-11-27T05:41:51.756Z,30.05
2018-11-27T05:42:39.982Z,31.60
2018-11-27T05:43:28.029Z,32.78
2018-11-27T05:44:15.814Z,31.23
2018-11-27T05:45:03.795Z,31.20
2018-11-27T05:45:52.316Z,31.20
2018-11-27T05:46:40.443Z,31.15
2018-11-27T05:47:28.512Z,31.07
2018-11-27T05:48:16.470Z,31.02
2018-11-27T05:49:04.087Z,31.37
2018-11-27T05:49:52.354Z,32.13
2018-11-27T05:50:40.224Z,31.45
2018-11-27T05:51:32.550Z,31.70
2018-11-27T05:52:22.620Z,32.38
2018-11-27T05:53:10.758Z,31.25
2018-11-27T05:53:58.903Z,30.62
2018-11-27T05:54:46.928Z,31.27
2018-11-27T05:55:35.737Z,31.82
2018-11-27T05:56:23.903Z,31.90
2018-11-27T05:57:11.600Z,32.48
2018-11-27T05:57:59.816Z,31.73
2018-11-27T05:58:47.924Z,31.95
2018-11-27T05:59:35.659Z,30.10
2018-11-27T06:00:32.718Z,30.85
2018-11-27T06:01:21.125Z,30.08
2018-11-27T06:02:09.190Z,30.62
2018-11-27T06:03:02.966Z,30.88
2018-11-27T06:03:50.561Z,31.07
2018-11-27T06:04:38.734Z,30.65
2018-11-27T06:05:27.214Z,31.00
2018-11-27T06:06:15.168Z,29.90
2018-11-27T06:07:02.823Z,30.92
2018-11-27T06:07:50.793Z,30.02
2018-11-27T06:08:38.660Z,30.52
2018-11-27T06:09:26.273Z,29.45
2018-11-27T06:10:26.857Z,29.80
2018-11-27T06:11:15.139Z,29.82
2018-11-27T06:12:03.249Z,29.12
2018-11-27T06:12:50.953Z,29.77
2018-11-27T06:13:39.896Z,29.50
2018-11-27T06:14:29.757Z,30.92
2018-11-27T06:15:19.188Z,30.95
2018-11-27T06:16:07.440Z,29.02
2018-11-27T06:16:56.282Z,29.30
2018-11-27T06:17:47.745Z,28.98
2018-11-27T06:18:35.679Z,30.15
2018-11-27T06:19:23.724Z,30.48
2018-11-27T06:20:15.643Z,28.65
2018-11-27T06:21:03.887Z,30.10
2018-11-27T06:21:51.801Z,28.98
2018-11-27T06:22:40.401Z,29.20
2018-11-27T06:23:28.380Z,29.23
2018-11-27T06:24:16.044Z,30.02
2018-11-27T06:25:03.783Z,28.52
2018-11-27T06:25:51.917Z,29.87
2018-11-27T06:26:39.910Z,29.35
2018-11-27T06:27:27.996Z,29.35
2018-11-27T06:28:16.389Z,27.40
2018-11-27T06:29:04.221Z,28.92
2018-11-27T06:29:51.894Z,29.63
2018-11-27T06:30:39.540Z,29.07
2018-11-27T06:31:28.019Z,29.82
2018-11-27T06:32:21.369Z,28.20
2018-11-27T06:33:07.012Z,27.87
2018-11-27T06:33:55.138Z,29.67
2018-11-27T06:34:43.884Z,28.65
2018-11-27T06:35:37.510Z,28.67
2018-11-27T06:36:25.360Z,27.85
2018-11-27T06:37:13.555Z,27.95
2018-11-27T06:38:01.801Z,29.00
2018-11-27T06:38:50.063Z,27.75
2018-11-27T06:39:38.162Z,27.98
2018-11-27T06:40:30.167Z,28.55
2018-11-27T06:41:19.965Z,27.98
2018-11-27T06:42:07.738Z,26.95
2018-11-27T06:42:55.239Z,26.95
2018-11-27T06:43:42.754Z,27.45
2018-11-27T06:44:30.811Z,25.88
2018-11-27T06:45:19.842Z,26.20
2018-11-27T06:46:08.035Z,27.10
2018-11-27T06:46:56.012Z,28.05
2018-11-27T06:47:44.038Z,25.82
2018-11-27T06:48:36.314Z,26.05
2018-11-27T06:49:25.536Z,26.02
2018-11-27T06:50:18.965Z,25.37
2018-11-27T06:51:08.793Z,24.98
2018-11-27T06:51:58.386Z,25.88
2018-11-27T06:52:47.845Z,26.25
2018-11-27T06:53:36.672Z,25.82
2018-11-27T06:54:25.139Z,26.02
2018-11-27T06:55:16.372Z,24.07
2018-11-27T06:56:04.036Z,25.05
2018-11-27T06:56:53.792Z,24.55
2018-11-27T06:57:44.404Z,24.90
2018-11-27T06:58:33.047Z,24.77
2018-11-27T06:59:23.525Z,25.80
2018-11-27T07:00:17.258Z,24.55
2018-11-27T07:01:06.419Z,25.08
2018-11-27T07:02:01.213Z,24.43
2018-11-27T07:02:51.194Z,63.87
2018-11-27T07:03:40.945Z,34.73
2018-11-27T07:04:29.901Z,27.50
2018-11-27T07:05:22.069Z,27.15
2018-11-27T07:06:11.218Z,25.88
2018-11-27T07:06:58.767Z,25.72
2018-11-27T07:07:46.919Z,24.47
2018-11-27T07:08:34.491Z,24.32
2018-11-27T07:09:22.020Z,25.32
2018-11-27T07:10:27.329Z,24.52
2018-11-27T07:11:15.294Z,22.82
2018-11-27T07:12:03.289Z,24.10
2018-11-27T07:12:52.593Z,24.32
2018-11-27T07:13:40.467Z,24.18
2018-11-27T07:14:28.568Z,24.47
2018-11-27T07:15:24.237Z,24.20
2018-11-27T07:16:12.123Z,24.07
2018-11-27T07:17:00.148Z,25.12
2018-11-27T07:17:47.951Z,24.63
2018-11-27T07:18:36.174Z,24.40
2018-11-27T07:19:24.263Z,24.67
2018-11-27T07:20:13.284Z,23.98
2018-11-27T07:21:01.083Z,23.38
2018-11-27T07:21:49.155Z,22.65
2018-11-27T07:22:36.850Z,24.45
2018-11-27T07:23:25.468Z,23.52
2018-11-27T07:24:13.551Z,23.20
2018-11-27T07:25:01.526Z,23.15
2018-11-27T07:25:50.213Z,24.32
2018-11-27T07:26:42.600Z,24.63
2018-11-27T07:27:31.275Z,25.23
2018-11-27T07:28:19.989Z,24.32
2018-11-27T07:29:07.935Z,23.90
2018-11-27T07:29:57.015Z,22.27
2018-11-27T07:30:49.399Z,23.10
2018-11-27T07:31:37.916Z,23.50
2018-11-27T07:32:26.181Z,22.87
2018-11-27T07:33:18.547Z,24.12
2018-11-27T07:34:06.581Z,21.65
2018-11-27T07:34:54.540Z,23.92
2018-11-27T07:35:41.964Z,23.57
2018-11-27T07:36:30.092Z,22.73
2018-11-27T07:37:17.703Z,22.98
2018-11-27T07:38:05.771Z,21.73
2018-11-27T07:38:53.896Z,23.40
2018-11-27T07:39:42.131Z,22.20
2018-11-27T07:40:29.771Z,22.20
2018-11-27T07:41:17.984Z,24.00
2018-11-27T07:42:08.479Z,22.45
2018-11-27T07:43:03.251Z,24.10
2018-11-27T07:43:55.713Z,21.93
2018-11-27T07:45:03.131Z,21.30
2018-11-27T07:45:55.226Z,21.87
2018-11-27T07:46:39.455Z,21.90
2018-11-27T07:47:27.088Z,22.35
2018-11-27T07:48:15.270Z,22.62
2018-11-27T07:49:02.915Z,21.77
2018-11-27T07:49:52.925Z,21.68
2018-11-27T07:50:41.008Z,21.02
2018-11-27T07:51:29.289Z,21.02
2018-11-27T07:52:17.152Z,20.43
2018-11-27T07:53:05.167Z,22.27
2018-11-27T07:53:52.822Z,22.13
2018-11-27T07:54:40.866Z,21.02
2018-11-27T07:55:28.948Z,20.95
2018-11-27T07:56:17.362Z,21.55
2018-11-27T07:57:05.000Z,21.35
2018-11-27T07:57:53.504Z,20.50
2018-11-27T07:58:41.189Z,21.82
2018-11-27T07:59:28.929Z,20.88
2018-11-27T08:00:27.437Z,20.45
2018-11-27T08:01:15.476Z,20.43
2018-11-27T08:02:03.696Z,20.12
2018-11-27T08:02:53.652Z,20.17
2018-11-27T08:03:41.512Z,20.45
2018-11-27T08:04:29.783Z,20.30
2018-11-27T08:05:33.937Z,20.90
2018-11-27T08:06:21.719Z,20.40
2018-11-27T08:07:10.230Z,19.92
2018-11-27T08:07:58.390Z,20.90
2018-11-27T08:08:46.071Z,20.48
2018-11-27T08:09:33.659Z,20.57
2018-11-27T08:10:22.862Z,20.72
2018-11-27T08:11:10.791Z,19.80
2018-11-27T08:11:58.446Z,21.37
2018-11-27T08:12:46.483Z,20.12
2018-11-27T08:13:34.078Z,21.33
2018-11-27T08:14:22.211Z,19.10
2018-11-27T08:15:21.228Z,20.12
2018-11-27T08:16:09.324Z,19.87
2018-11-27T08:16:57.572Z,20.15
2018-11-27T08:17:45.807Z,19.77
2018-11-27T08:18:33.974Z,20.05
2018-11-27T08:19:21.825Z,19.80
2018-11-27T08:20:11.712Z,19.62
2018-11-27T08:20:59.731Z,20.72
2018-11-27T08:21:47.417Z,20.65
2018-11-27T08:22:35.783Z,20.08
2018-11-27T08:23:23.598Z,19.32
2018-11-27T08:24:11.777Z,18.98
2018-11-27T08:24:59.275Z,18.65
2018-11-27T08:26:06.378Z,19.87
2018-11-27T08:26:54.725Z,19.35
2018-11-27T08:27:42.453Z,19.35
2018-11-27T08:28:30.440Z,18.92
2018-11-27T08:29:18.077Z,19.80
2018-11-27T08:30:10.938Z,20.35
2018-11-27T08:30:58.676Z,19.95
2018-11-27T08:31:46.602Z,20.35
2018-11-27T08:32:34.735Z,19.40
2018-11-27T08:33:22.631Z,19.05
2018-11-27T08:34:11.518Z,19.75
2018-11-27T08:34:59.710Z,18.07
2018-11-27T08:35:47.851Z,18.98
2018-11-27T08:36:35.547Z,17.57
2018-11-27T08:37:23.168Z,19.02
2018-11-27T08:38:10.912Z,17.98
2018-11-27T08:38:58.559Z,19.45
2018-11-27T08:39:46.122Z,18.65
2018-11-27T08:40:34.721Z,18.77
2018-11-27T08:41:22.692Z,19.20
2018-11-27T08:42:10.694Z,20.00
2018-11-27T08:42:58.706Z,19.42
2018-11-27T08:43:46.866Z,18.80
2018-11-27T08:44:35.044Z,19.00
2018-11-27T08:45:23.868Z,19.98
2018-11-27T08:46:11.820Z,18.82
2018-11-27T08:46:59.392Z,19.32
2018-11-27T08:47:47.958Z,18.25
2018-11-27T08:48:36.577Z,17.95
2018-11-27T08:49:25.020Z,19.77
2018-11-27T08:50:25.623Z,18.07
2018-11-27T08:51:13.244Z,18.75
2018-11-27T08:52:01.176Z,46.83
2018-11-27T08:52:53.385Z,38.85
2018-11-27T08:53:41.541Z,25.10
2018-11-27T08:54:29.747Z,25.68
2018-11-27T08:55:40.295Z,21.57
2018-11-27T08:56:28.259Z,18.80
2018-11-27T08:57:15.931Z,18.10
2018-11-27T08:58:04.508Z,17.95
2018-11-27T08:58:52.440Z,17.30
2018-11-27T08:59:40.647Z,16.90
2018-11-27T09:00:28.881Z,17.40
2018-11-27T09:01:16.999Z,17.80
2018-11-27T09:02:04.994Z,17.25
2018-11-27T09:02:52.860Z,17.67
2018-11-27T09:03:46.359Z,16.62
2018-11-27T09:04:29.588Z,16.85
2018-11-27T09:05:17.646Z,18.37
2018-11-27T09:06:06.303Z,17.02
2018-11-27T09:06:54.131Z,17.50
2018-11-27T09:07:42.614Z,17.62
2018-11-27T09:08:30.661Z,16.87
2018-11-27T09:09:18.450Z,17.37
2018-11-27T09:10:12.051Z,17.12
2018-11-27T09:10:59.909Z,17.70
2018-11-27T09:11:47.499Z,17.70
2018-11-27T09:12:35.116Z,18.05
2018-11-27T09:13:23.023Z,17.52
2018-11-27T09:14:11.841Z,17.42
2018-11-27T09:14:59.651Z,16.77
2018-11-27T09:15:47.689Z,17.57
2018-11-27T09:16:35.789Z,18.15
2018-11-27T09:17:23.711Z,17.32
2018-11-27T09:18:22.729Z,17.55
2018-11-27T09:19:10.457Z,18.02
2018-11-27T09:19:58.789Z,18.50
2018-11-27T09:20:47.035Z,17.87
2018-11-27T09:21:34.738Z,16.62
2018-11-27T09:22:22.518Z,17.70
2018-11-27T09:23:10.610Z,16.40
2018-11-27T09:24:04.590Z,17.73
2018-11-27T09:24:52.455Z,17.65
2018-11-27T09:25:40.463Z,16.90
2018-11-27T09:26:28.439Z,17.65
2018-11-27T09:27:16.765Z,15.98
2018-11-27T09:28:05.638Z,16.00
2018-11-27T09:28:53.519Z,16.85
2018-11-27T09:29:41.081Z,18.02
2018-11-27T09:30:28.720Z,18.00
2018-11-27T09:31:16.506Z,17.60
2018-11-27T09:32:04.535Z,17.42
2018-11-27T09:32:52.138Z,17.42
2018-11-27T09:33:39.870Z,17.73
2018-11-27T09:34:28.506Z,18.15
2018-11-27T09:35:16.427Z,16.35
2018-11-27T09:36:04.355Z,16.97
2018-11-27T09:36:52.396Z,17.17
2018-11-27T09:37:39.950Z,16.50
2018-11-27T09:38:28.005Z,17.00
2018-11-27T09:39:16.287Z,31.55
2018-11-27T09:40:05.047Z,37.53
2018-11-27T09:40:53.293Z,22.37
2018-11-27T09:41:41.314Z,18.15
2018-11-27T09:42:29.401Z,18.35
2018-11-27T09:43:17.544Z,17.20
2018-11-27T09:44:06.542Z,16.23
2018-11-27T09:44:54.449Z,17.23
2018-11-27T09:46:01.240Z,16.50
2018-11-27T09:46:49.302Z,16.90
2018-11-27T09:47:37.469Z,16.40
2018-11-27T09:48:25.656Z,17.62
2018-11-27T09:49:13.652Z,16.23
2018-11-27T09:50:01.170Z,16.37
2018-11-27T09:50:49.709Z,16.20
2018-11-27T09:51:37.429Z,16.67
2018-11-27T09:52:25.113Z,16.27
2018-11-27T09:53:14.587Z,16.17
2018-11-27T09:54:02.192Z,15.63
2018-11-27T09:54:50.316Z,16.25
2018-11-27T09:55:37.903Z,17.42
2018-11-27T09:56:26.004Z,16.90
2018-11-27T09:57:14.176Z,16.73
2018-11-27T09:58:02.342Z,16.40
2018-11-27T09:58:50.386Z,16.15
2018-11-27T09:59:38.109Z,15.95
2018-11-27T10:00:30.697Z,15.75
2018-11-27T10:01:18.506Z,16.80
2018-11-27T10:02:06.292Z,16.37
2018-11-27T10:02:55.377Z,15.45
2018-11-27T10:03:43.576Z,15.72
2018-11-27T10:04:31.335Z,16.23
2018-11-27T10:05:19.568Z,16.00
2018-11-27T10:06:08.189Z,15.10
2018-11-27T10:06:59.320Z,15.65
2018-11-27T10:07:47.032Z,15.23
2018-11-27T10:08:34.821Z,16.42
2018-11-27T10:09:22.274Z,15.98
2018-11-27T10:10:11.396Z,15.00
2018-11-27T10:10:59.698Z,16.35
2018-11-27T10:11:48.469Z,15.45
2018-11-27T10:12:36.489Z,14.87
2018-11-27T10:13:24.400Z,15.58
2018-11-27T10:14:12.596Z,15.23
2018-11-27T10:15:00.339Z,16.82
2018-11-27T10:15:47.938Z,15.38
2018-11-27T10:16:35.605Z,15.55
2018-11-27T10:17:24.464Z,15.55
2018-11-27T10:18:12.316Z,14.65
2018-11-27T10:19:00.387Z,15.55
2018-11-27T10:19:47.928Z,15.72
2018-11-27T10:20:39.523Z,15.48
2018-11-27T10:21:27.630Z,16.87
2018-11-27T10:22:15.806Z,15.28
2018-11-27T10:23:03.455Z,15.80
2018-11-27T10:23:51.106Z,15.08
2018-11-27T10:24:39.232Z,15.43
2018-11-27T10:25:28.021Z,15.85
2018-11-27T10:26:15.843Z,14.38
2018-11-27T10:27:03.369Z,14.60
2018-11-27T10:27:50.933Z,14.68
2018-11-27T10:28:38.989Z,15.08
2018-11-27T10:29:27.168Z,15.05